createdAt,value
2019-05-30T00:04:38.159Z,6
2019-05-30T00:09:38.161Z,5
2019-05-30T00:14:38.167Z,6
2019-05-30T00:19:38.173Z,5
2019-05-30T00:24:38.157Z,6
2019-05-30T00:29:38.159Z,6
2019-05-30T00:34:38.169Z,6
2019-05-30T00:39:38.183Z,5
2019-05-30T00:44:38.169Z,7
2019-05-30T00:49:38.175Z,6
2019-05-30T00:54:38.175Z,6
2019-05-30T00:59:38.188Z,6
2019-05-30T01:04:38.184Z,6
2019-05-30T01:09:38.185Z,6
2019-05-30T01:14:38.197Z,6
2019-05-30T01:19:38.200Z,6
2019-05-30T01:24:38.185Z,6
2019-05-30T01:29:38.185Z,8
2019-05-30T01:34:38.190Z,7
2019-05-30T01:39:38.203Z,7
2019-05-30T01:44:38.191Z,7
2019-05-30T01:49:38.191Z,7
2019-05-30T01:54:38.191Z,6
2019-05-30T01:59:38.208Z,7
2019-05-30T02:04:38.196Z,7
2019-05-30T02:09:38.193Z,7
2019-05-30T02:14:38.196Z,7
2019-05-30T02:19:38.209Z,6
2019-05-30T02:24:38.193Z,6
2019-05-30T02:29:38.200Z,7
2019-05-30T02:34:38.204Z,7
2019-05-30T02:39:38.216Z,7
2019-05-30T02:44:38.212Z,7
2019-05-30T02:49:38.211Z,7
2019-05-30T02:54:38.225Z,7
2019-05-30T02:59:38.220Z,6
2019-05-30T03:04:38.227Z,7
2019-05-30T03:09:38.218Z,7
2019-05-30T03:14:38.221Z,7
2019-05-30T03:19:38.237Z,9
2019-05-30T03:24:38.226Z,8
2019-05-30T03:29:38.228Z,6
2019-05-30T03:34:38.231Z,7
2019-05-30T03:39:38.245Z,7
2019-05-30T03:44:38.236Z,7
2019-05-30T03:49:38.247Z,7
2019-05-30T03:54:38.234Z,7
2019-05-30T03:59:38.249Z,7
2019-05-30T04:04:38.236Z,7
2019-05-30T04:09:38.241Z,7
2019-05-30T04:14:38.244Z,7
2019-05-30T04:19:38.265Z,8
2019-05-30T04:24:38.245Z,7
2019-05-30T04:29:38.252Z,5
2019-05-30T04:34:38.263Z,7
2019-05-30T04:39:38.261Z,7
2019-05-30T04:44:38.264Z,5
2019-05-30T04:49:38.281Z,6
2019-05-30T04:54:38.279Z,5
2019-05-30T04:59:38.293Z,5
2019-05-30T05:04:38.279Z,4
2019-05-30T05:09:38.280Z,4
2019-05-30T05:14:38.287Z,5
2019-05-30T05:19:38.302Z,5
2019-05-30T05:24:38.287Z,6
2019-05-30T05:29:38.303Z,5
2019-05-30T05:34:38.304Z,6
2019-05-30T05:39:38.311Z,6
2019-05-30T05:44:38.299Z,6
2019-05-30T05:49:38.303Z,6
2019-05-30T05:54:38.305Z,6
2019-05-30T05:59:38.322Z,5
2019-05-30T06:04:38.317Z,5
2019-05-30T06:09:38.317Z,6
2019-05-30T06:14:38.323Z,5
2019-05-30T06:19:46.157Z,5
2019-05-30T06:24:38.325Z,7
2019-05-30T06:29:38.336Z,6
2019-05-30T06:34:39.715Z,6
2019-05-30T06:39:38.350Z,6
2019-05-30T06:44:38.341Z,7
2019-05-30T06:49:38.342Z,8
2019-05-30T06:54:38.352Z,7
2019-05-30T06:59:38.358Z,7
2019-05-30T07:04:50.665Z,8
2019-05-30T07:09:38.368Z,7
2019-05-30T07:14:38.357Z,7
2019-05-30T07:19:38.374Z,8
2019-05-30T07:24:38.358Z,9
2019-05-30T07:29:38.364Z,8
2019-05-30T07:34:38.366Z,8
2019-05-30T07:39:38.384Z,8
2019-05-30T07:44:38.366Z,9
2019-05-30T07:49:38.722Z,8
2019-05-30T07:54:39.242Z,8
2019-05-30T07:59:38.735Z,9
2019-05-30T08:04:38.368Z,8
2019-05-30T08:09:39.256Z,8
2019-05-30T08:14:38.366Z,10
2019-05-30T08:19:38.419Z,9
2019-05-30T08:24:38.911Z,8
2019-05-30T08:29:38.575Z,8
2019-05-30T08:34:38.826Z,7
2019-05-30T08:39:39.367Z,8
2019-05-30T08:44:38.382Z,8
2019-05-30T08:49:38.396Z,7
2019-05-30T08:54:38.567Z,7
2019-05-30T08:59:38.653Z,7
2019-05-30T09:04:38.382Z,7
2019-05-30T09:09:38.387Z,8
2019-05-30T09:14:39.226Z,8
2019-05-30T09:19:39.719Z,7
2019-05-30T09:24:39.039Z,8
2019-05-30T09:29:39.582Z,9
2019-05-30T09:34:39.766Z,9
2019-05-30T09:39:38.989Z,9
2019-05-30T09:44:40.454Z,10
2019-05-30T09:49:38.398Z,9
2019-05-30T09:54:38.404Z,9
2019-05-30T09:59:38.421Z,9
2019-05-30T10:04:38.401Z,10
2019-05-30T10:09:38.401Z,10
2019-05-30T10:14:38.403Z,9
2019-05-30T10:19:38.413Z,9
2019-05-30T10:24:38.403Z,8
2019-05-30T10:29:38.406Z,8
2019-05-30T10:34:38.406Z,7
2019-05-30T10:39:38.417Z,7
2019-05-30T10:44:38.406Z,6
2019-05-30T10:49:38.407Z,5
2019-05-30T10:54:38.407Z,7
2019-05-30T10:59:38.436Z,5
2019-05-30T11:04:38.413Z,6
2019-05-30T11:09:38.426Z,7
2019-05-30T11:14:38.419Z,6
2019-05-30T11:19:38.442Z,5
2019-05-30T11:24:38.424Z,6
2019-05-30T11:29:38.419Z,5
2019-05-30T11:34:38.428Z,6
2019-05-30T11:39:38.439Z,6
2019-05-30T11:44:38.430Z,5
2019-05-30T11:49:38.435Z,4
2019-05-30T11:54:38.433Z,5
2019-05-30T11:59:38.466Z,6
2019-05-30T12:04:38.435Z,4
2019-05-30T12:09:38.439Z,4
2019-05-30T12:14:38.444Z,3
2019-05-30T12:19:38.462Z,2
2019-05-30T12:24:38.441Z,2
2019-05-30T12:29:38.443Z,3
2019-05-30T12:34:38.448Z,2
2019-05-30T12:39:38.460Z,3
2019-05-30T12:44:38.443Z,3
2019-05-30T12:49:38.445Z,3
2019-05-30T12:54:38.447Z,3
2019-05-30T12:59:38.455Z,3
2019-05-30T13:04:38.448Z,3
2019-05-30T13:09:38.464Z,3
2019-05-30T13:14:38.450Z,2
2019-05-30T13:19:38.480Z,3
2019-05-30T13:24:38.450Z,3
2019-05-30T13:29:38.474Z,3
2019-05-30T13:34:38.444Z,3
2019-05-30T13:39:38.466Z,3
2019-05-30T13:44:38.449Z,3
2019-05-30T13:49:38.463Z,3
2019-05-30T13:54:38.454Z,3
2019-05-30T13:59:38.468Z,3
2019-05-30T14:04:38.455Z,2
2019-05-30T14:09:38.448Z,3
2019-05-30T14:14:38.480Z,3
2019-05-30T14:19:38.455Z,2
2019-05-30T14:24:38.462Z,2
2019-05-30T14:29:38.448Z,2
2019-05-30T14:34:38.462Z,2
2019-05-30T14:39:38.476Z,2
2019-05-30T14:44:38.466Z,2
2019-05-30T14:49:38.488Z,2
2019-05-30T14:54:38.484Z,3
2019-05-30T14:59:38.507Z,3
2019-05-30T15:04:38.489Z,3
2019-05-30T15:09:38.501Z,3
2019-05-30T15:14:38.501Z,3
2019-05-30T15:19:38.514Z,2
2019-05-30T15:24:38.503Z,3
2019-05-30T15:29:38.500Z,3
2019-05-30T15:34:38.505Z,2
2019-05-30T15:39:38.517Z,3
2019-05-30T15:44:38.513Z,3
2019-05-30T15:49:38.529Z,2
2019-05-30T15:54:38.515Z,3
2019-05-30T15:59:38.534Z,3
2019-05-30T16:04:38.521Z,2
2019-05-30T16:09:46.511Z,3
2019-05-30T16:14:38.533Z,4
2019-05-30T16:19:38.557Z,3
2019-05-30T16:24:38.541Z,3
2019-05-30T16:29:38.552Z,2
2019-05-30T16:34:38.559Z,3
2019-05-30T16:39:38.559Z,3
2019-05-30T16:44:38.553Z,3
2019-05-30T16:49:38.621Z,2
2019-05-30T16:54:38.573Z,3
2019-05-30T16:59:38.589Z,3
2019-05-30T17:04:38.583Z,3
2019-05-30T17:09:38.587Z,2
2019-05-30T17:14:38.589Z,3
2019-05-30T17:19:39.424Z,3
2019-05-30T17:24:38.591Z,4
2019-05-30T17:29:38.607Z,3
2019-05-30T17:34:38.599Z,3
2019-05-30T17:39:38.611Z,3
2019-05-30T17:44:38.601Z,3
2019-05-30T17:49:38.602Z,3
2019-05-30T17:54:38.607Z,3
2019-05-30T17:59:38.618Z,3
2019-05-30T18:04:38.614Z,3
2019-05-30T18:09:38.624Z,3
2019-05-30T18:14:38.639Z,3
2019-05-30T18:19:38.644Z,3
2019-05-30T18:24:38.627Z,3
2019-05-30T18:29:38.636Z,4
2019-05-30T18:34:38.642Z,4
2019-05-30T18:39:38.652Z,4
2019-05-30T18:44:38.686Z,3
2019-05-30T18:49:38.645Z,3
2019-05-30T18:54:38.654Z,4
2019-05-30T18:59:38.673Z,3
2019-05-30T19:04:38.657Z,4
2019-05-30T19:09:38.671Z,4
2019-05-30T19:14:38.666Z,4
2019-05-30T19:19:38.684Z,4
2019-05-30T19:24:38.665Z,4
2019-05-30T19:29:38.674Z,4
2019-05-30T19:34:38.679Z,3
2019-05-30T19:39:38.695Z,3
2019-05-30T19:44:41.430Z,3
2019-05-30T19:49:38.720Z,4
2019-05-30T19:54:39.148Z,3
2019-05-30T19:59:39.859Z,4
2019-05-30T20:04:38.694Z,4
2019-05-30T20:09:38.698Z,4
2019-05-30T20:14:39.219Z,4
2019-05-30T20:19:39.891Z,4
2019-05-30T20:24:38.704Z,5
2019-05-30T20:29:39.197Z,4
2019-05-30T20:34:38.908Z,4
2019-05-30T20:39:38.754Z,4
2019-05-30T20:44:38.883Z,4
2019-05-30T20:49:39.136Z,3
2019-05-30T20:54:39.237Z,4
2019-05-30T20:59:38.734Z,4
2019-05-30T21:04:38.833Z,4
2019-05-30T21:09:39.900Z,5
2019-05-30T21:14:39.491Z,3
2019-05-30T21:19:39.773Z,4
2019-05-30T21:24:38.737Z,4
2019-05-30T21:29:38.946Z,4
2019-05-30T21:34:40.024Z,4
2019-05-30T21:39:39.913Z,4
2019-05-30T21:44:38.742Z,3
2019-05-30T21:49:38.890Z,7
2019-05-30T21:54:39.760Z,5
2019-05-30T21:59:40.120Z,5
2019-05-30T22:04:38.754Z,6
2019-05-30T22:09:38.758Z,6
2019-05-30T22:14:38.760Z,6
2019-05-30T22:19:38.772Z,5
2019-05-30T22:24:38.762Z,6
2019-05-30T22:29:40.436Z,6
2019-05-30T22:34:38.763Z,6
2019-05-30T22:39:38.780Z,5
2019-05-30T22:44:38.767Z,5
2019-05-30T22:49:38.764Z,4
2019-05-30T22:54:38.768Z,4
2019-05-30T22:59:38.787Z,4
2019-05-30T23:04:38.771Z,4
2019-05-30T23:09:38.771Z,4
2019-05-30T23:14:38.787Z,4
2019-05-30T23:19:38.789Z,6
2019-05-30T23:24:38.783Z,7
2019-05-30T23:29:38.783Z,6
2019-05-30T23:34:38.781Z,6
2019-05-30T23:39:38.799Z,6
2019-05-30T23:44:38.783Z,6
2019-05-30T23:49:38.787Z,5
2019-05-30T23:54:38.787Z,5
2019-05-30T23:59:38.799Z,4
